Pinoso, Spain
Current Conditions -  °F | °C
As of 12:30 PM on Saturday 25 Oct 2014 (Local Time) from LEAL Reporting Station
Clear Clear  
Wind Chill: 81°   Ceiling: Unl
Heat Index: 81°   Visibility: 6mi
Dew Point: 39°   Wind: 0mph
Humidity: 23%   Direction: NA
Pressure: 30.12"   Gusts: NA
Location:  38.42°N, 1.03°W
Report Text: LEAL 251030Z 00000KT CAVOK 27/04 Q1020 NOSIG
Loading
Personal Weather Stations






























Interactive Weather Map New forecast layout! Learn more

10-Day Weather Forecast

Advertisements
Track Severe Weather on mobile